sensor_id;sensor_type;location;lat;lon;timestamp;P1;durP1;ratioP1;P2;durP2;ratioP2
73859;SDS011;62197;51.632;13.700;2023-03-01T00:01:29;11.73;;;6.40;;
73859;SDS011;62197;51.632;13.700;2023-03-01T00:03:56;11.20;;;5.85;;
73859;SDS011;62197;51.632;13.700;2023-03-01T00:06:22;13.77;;;6.05;;
73859;SDS011;62197;51.632;13.700;2023-03-01T00:08:47;9.68;;;6.05;;
73859;SDS011;62197;51.632;13.700;2023-03-01T00:11:14;13.50;;;6.22;;
73859;SDS011;62197;51.632;13.700;2023-03-01T00:13:44;16.95;;;6.65;;
73859;SDS011;62197;51.632;13.700;2023-03-01T00:16:13;14.27;;;6.15;;
73859;SDS011;62197;51.632;13.700;2023-03-01T00:18:41;15.25;;;6.35;;
73859;SDS011;62197;51.632;13.700;2023-03-01T00:21:06;16.33;;;6.53;;
73859;SDS011;62197;51.632;13.700;2023-03-01T00:23:33;15.43;;;7.20;;
73859;SDS011;62197;51.632;13.700;2023-03-01T00:25:59;14.00;;;5.72;;
73859;SDS011;62197;51.632;13.700;2023-03-01T00:28:24;16.67;;;6.85;;
73859;SDS011;62197;51.632;13.700;2023-03-01T00:30:50;12.13;;;6.22;;
73859;SDS011;62197;51.632;13.700;2023-03-01T00:33:15;13.63;;;5.65;;
73859;SDS011;62197;51.632;13.700;2023-03-01T00:35:41;13.50;;;6.70;;
73859;SDS011;62197;51.632;13.700;2023-03-01T00:38:06;12.90;;;6.65;;
73859;SDS011;62197;51.632;13.700;2023-03-01T00:40:33;20.17;;;7.63;;
73859;SDS011;62197;51.632;13.700;2023-03-01T00:42:59;16.35;;;6.40;;
73859;SDS011;62197;51.632;13.700;2023-03-01T00:45:25;18.50;;;6.95;;
73859;SDS011;62197;51.632;13.700;2023-03-01T00:47:50;17.58;;;7.13;;
73859;SDS011;62197;51.632;13.700;2023-03-01T00:50:16;12.77;;;6.25;;
73859;SDS011;62197;51.632;13.700;2023-03-01T00:52:42;15.70;;;6.78;;
73859;SDS011;62197;51.632;13.700;2023-03-01T00:55:07;10.70;;;6.00;;
73859;SDS011;62197;51.632;13.700;2023-03-01T00:57:33;14.40;;;6.60;;
73859;SDS011;62197;51.632;13.700;2023-03-01T00:59:58;13.80;;;5.72;;
73859;SDS011;62197;51.632;13.700;2023-03-01T01:02:24;15.20;;;6.43;;
73859;SDS011;62197;51.632;13.700;2023-03-01T01:04:50;13.00;;;5.90;;
73859;SDS011;62197;51.632;13.700;2023-03-01T01:07:15;12.45;;;5.85;;
73859;SDS011;62197;51.632;13.700;2023-03-01T01:12:07;15.25;;;6.15;;
73859;SDS011;62197;51.632;13.700;2023-03-01T01:14:33;13.00;;;5.68;;
73859;SDS011;62197;51.632;13.700;2023-03-01T01:16:58;22.13;;;6.35;;
73859;SDS011;62197;51.632;13.700;2023-03-01T01:19:24;13.95;;;6.35;;
73859;SDS011;62197;51.632;13.700;2023-03-01T01:21:50;18.40;;;6.32;;
73859;SDS011;62197;51.632;13.700;2023-03-01T01:24:15;11.90;;;5.90;;
73859;SDS011;62197;51.632;13.700;2023-03-01T01:26:41;13.95;;;6.78;;
73859;SDS011;62197;51.632;13.700;2023-03-01T01:29:07;13.05;;;5.78;;
73859;SDS011;62197;51.632;13.700;2023-03-01T01:31:34;12.43;;;5.32;;
73859;SDS011;62197;51.632;13.700;2023-03-01T01:34:00;15.18;;;5.75;;
73859;SDS011;62197;51.632;13.700;2023-03-01T01:36:27;12.50;;;5.53;;
73859;SDS011;62197;51.632;13.700;2023-03-01T01:38:53;18.73;;;5.60;;
73859;SDS011;62197;51.632;13.700;2023-03-01T01:41:19;17.73;;;7.45;;
73859;SDS011;62197;51.632;13.700;2023-03-01T01:43:46;14.43;;;6.05;;
73859;SDS011;62197;51.632;13.700;2023-03-01T01:46:15;14.77;;;6.53;;
73859;SDS011;62197;51.632;13.700;2023-03-01T01:48:54;17.40;;;5.95;;
73859;SDS011;62197;51.632;13.700;2023-03-01T01:51:24;11.73;;;5.47;;
73859;SDS011;62197;51.632;13.700;2023-03-01T01:53:59;13.65;;;5.03;;
73859;SDS011;62197;51.632;13.700;2023-03-01T01:56:25;11.70;;;5.78;;
73859;SDS011;62197;51.632;13.700;2023-03-01T01:58:53;16.65;;;6.43;;
73859;SDS011;62197;51.632;13.700;2023-03-01T02:01:19;11.82;;;6.47;;
73859;SDS011;62197;51.632;13.700;2023-03-01T02:03:45;18.50;;;6.72;;
73859;SDS011;62197;51.632;13.700;2023-03-01T02:06:24;13.65;;;5.72;;
73859;SDS011;62197;51.632;13.700;2023-03-01T02:08:53;16.35;;;6.93;;
73859;SDS011;62197;51.632;13.700;2023-03-01T02:11:22;13.90;;;6.38;;
73859;SDS011;62197;51.632;13.700;2023-03-01T02:13:48;14.57;;;6.22;;
73859;SDS011;62197;51.632;13.700;2023-03-01T02:16:14;16.20;;;6.13;;
73859;SDS011;62197;51.632;13.700;2023-03-01T02:18:41;13.57;;;5.93;;
73859;SDS011;62197;51.632;13.700;2023-03-01T02:21:12;16.70;;;6.95;;
73859;SDS011;62197;51.632;13.700;2023-03-01T02:23:54;20.13;;;7.68;;
73859;SDS011;62197;51.632;13.700;2023-03-01T02:28:58;18.92;;;7.00;;
73859;SDS011;62197;51.632;13.700;2023-03-01T02:31:24;20.88;;;6.97;;
73859;SDS011;62197;51.632;13.700;2023-03-01T02:34:12;24.42;;;9.52;;
73859;SDS011;62197;51.632;13.700;2023-03-01T02:36:42;29.70;;;9.15;;
73859;SDS011;62197;51.632;13.700;2023-03-01T02:39:13;32.28;;;10.02;;
73859;SDS011;62197;51.632;13.700;2023-03-01T02:41:42;27.10;;;10.25;;
73859;SDS011;62197;51.632;13.700;2023-03-01T02:44:13;24.38;;;9.20;;
73859;SDS011;62197;51.632;13.700;2023-03-01T02:46:42;29.85;;;10.07;;
73859;SDS011;62197;51.632;13.700;2023-03-01T02:49:45;34.47;;;11.18;;
73859;SDS011;62197;51.632;13.700;2023-03-01T02:55:06;40.15;;;11.55;;
73859;SDS011;62197;51.632;13.700;2023-03-01T02:57:35;30.42;;;11.18;;
73859;SDS011;62197;51.632;13.700;2023-03-01T03:00:05;32.63;;;12.63;;
73859;SDS011;62197;51.632;13.700;2023-03-01T03:02:36;30.33;;;10.23;;
73859;SDS011;62197;51.632;13.700;2023-03-01T03:05:03;23.65;;;8.60;;
73859;SDS011;62197;51.632;13.700;2023-03-01T03:07:33;24.17;;;8.45;;
73859;SDS011;62197;51.632;13.700;2023-03-01T03:09:59;26.35;;;8.70;;
73859;SDS011;62197;51.632;13.700;2023-03-01T03:12:26;18.45;;;8.15;;
73859;SDS011;62197;51.632;13.700;2023-03-01T03:14:52;30.33;;;8.13;;
73859;SDS011;62197;51.632;13.700;2023-03-01T03:17:17;23.48;;;9.07;;
73859;SDS011;62197;51.632;13.700;2023-03-01T03:19:42;17.35;;;6.80;;
73859;SDS011;62197;51.632;13.700;2023-03-01T03:22:10;13.32;;;5.63;;
73859;SDS011;62197;51.632;13.700;2023-03-01T03:24:38;14.95;;;5.88;;
73859;SDS011;62197;51.632;13.700;2023-03-01T03:27:04;20.35;;;6.82;;
73859;SDS011;62197;51.632;13.700;2023-03-01T03:31:56;15.98;;;5.15;;
73859;SDS011;62197;51.632;13.700;2023-03-01T03:34:21;16.27;;;5.30;;
73859;SDS011;62197;51.632;13.700;2023-03-01T03:36:47;15.93;;;6.10;;
73859;SDS011;62197;51.632;13.700;2023-03-01T03:39:12;13.07;;;5.70;;
73859;SDS011;62197;51.632;13.700;2023-03-01T03:41:37;10.93;;;5.90;;
73859;SDS011;62197;51.632;13.700;2023-03-01T03:44:03;11.52;;;5.53;;
73859;SDS011;62197;51.632;13.700;2023-03-01T03:46:28;11.45;;;5.25;;
73859;SDS011;62197;51.632;13.700;2023-03-01T03:48:54;14.20;;;5.78;;
73859;SDS011;62197;51.632;13.700;2023-03-01T03:51:19;9.55;;;5.22;;
73859;SDS011;62197;51.632;13.700;2023-03-01T03:53:44;18.27;;;6.50;;
73859;SDS011;62197;51.632;13.700;2023-03-01T03:56:11;17.88;;;6.15;;
73859;SDS011;62197;51.632;13.700;2023-03-01T03:58:37;13.52;;;6.60;;
73859;SDS011;62197;51.632;13.700;2023-03-01T04:01:03;12.68;;;5.72;;
73859;SDS011;62197;51.632;13.700;2023-03-01T04:03:29;11.98;;;4.93;;
73859;SDS011;62197;51.632;13.700;2023-03-01T04:05:57;9.82;;;5.40;;
73859;SDS011;62197;51.632;13.700;2023-03-01T04:08:24;11.95;;;4.90;;
73859;SDS011;62197;51.632;13.700;2023-03-01T04:10:50;8.27;;;4.65;;
73859;SDS011;62197;51.632;13.700;2023-03-01T04:13:18;10.25;;;4.60;;
73859;SDS011;62197;51.632;13.700;2023-03-01T04:15:47;11.05;;;5.20;;
73859;SDS011;62197;51.632;13.700;2023-03-01T04:18:15;12.23;;;5.32;;
73859;SDS011;62197;51.632;13.700;2023-03-01T04:20:41;13.82;;;5.45;;
73859;SDS011;62197;51.632;13.700;2023-03-01T04:23:08;14.02;;;6.10;;
73859;SDS011;62197;51.632;13.700;2023-03-01T04:25:42;11.85;;;5.47;;
73859;SDS011;62197;51.632;13.700;2023-03-01T04:28:23;8.85;;;4.78;;
73859;SDS011;62197;51.632;13.700;2023-03-01T04:30:51;12.90;;;5.78;;
73859;SDS011;62197;51.632;13.700;2023-03-01T04:33:18;15.85;;;5.18;;
73859;SDS011;62197;51.632;13.700;2023-03-01T04:35:44;13.55;;;5.70;;
73859;SDS011;62197;51.632;13.700;2023-03-01T04:38:09;15.68;;;6.07;;
73859;SDS011;62197;51.632;13.700;2023-03-01T04:40:34;11.25;;;5.45;;
73859;SDS011;62197;51.632;13.700;2023-03-01T04:43:00;16.45;;;7.15;;
73859;SDS011;62197;51.632;13.700;2023-03-01T04:45:26;26.40;;;8.07;;
73859;SDS011;62197;51.632;13.700;2023-03-01T04:47:52;15.80;;;6.28;;
73859;SDS011;62197;51.632;13.700;2023-03-01T04:50:18;22.50;;;8.95;;
73859;SDS011;62197;51.632;13.700;2023-03-01T04:52:48;19.13;;;8.63;;
73859;SDS011;62197;51.632;13.700;2023-03-01T04:55:13;21.05;;;8.63;;
73859;SDS011;62197;51.632;13.700;2023-03-01T04:57:39;19.15;;;8.50;;
73859;SDS011;62197;51.632;13.700;2023-03-01T05:00:05;18.15;;;7.20;;
73859;SDS011;62197;51.632;13.700;2023-03-01T05:02:57;16.73;;;6.68;;
73859;SDS011;62197;51.632;13.700;2023-03-01T05:05:29;16.25;;;6.22;;
73859;SDS011;62197;51.632;13.700;2023-03-01T05:07:57;19.98;;;7.65;;
73859;SDS011;62197;51.632;13.700;2023-03-01T05:10:25;17.92;;;7.18;;
73859;SDS011;62197;51.632;13.700;2023-03-01T05:12:53;22.17;;;8.27;;
73859;SDS011;62197;51.632;13.700;2023-03-01T05:15:19;18.23;;;8.35;;
73859;SDS011;62197;51.632;13.700;2023-03-01T05:17:46;17.42;;;7.10;;
73859;SDS011;62197;51.632;13.700;2023-03-01T05:20:12;22.42;;;7.93;;
73859;SDS011;62197;51.632;13.700;2023-03-01T05:22:37;19.05;;;7.72;;
73859;SDS011;62197;51.632;13.700;2023-03-01T05:25:04;17.88;;;9.07;;
73859;SDS011;62197;51.632;13.700;2023-03-01T05:27:29;19.60;;;9.32;;
73859;SDS011;62197;51.632;13.700;2023-03-01T05:29:55;24.63;;;10.68;;
73859;SDS011;62197;51.632;13.700;2023-03-01T05:32:21;16.08;;;7.45;;
73859;SDS011;62197;51.632;13.700;2023-03-01T05:34:46;22.25;;;8.10;;
73859;SDS011;62197;51.632;13.700;2023-03-01T05:37:12;16.08;;;6.97;;
73859;SDS011;62197;51.632;13.700;2023-03-01T05:39:39;18.95;;;8.57;;
73859;SDS011;62197;51.632;13.700;2023-03-01T05:42:04;25.33;;;9.00;;
73859;SDS011;62197;51.632;13.700;2023-03-01T05:44:30;20.08;;;7.47;;
73859;SDS011;62197;51.632;13.700;2023-03-01T05:46:55;19.23;;;8.65;;
73859;SDS011;62197;51.632;13.700;2023-03-01T05:49:21;17.50;;;7.25;;
73859;SDS011;62197;51.632;13.700;2023-03-01T05:51:49;19.23;;;7.57;;
73859;SDS011;62197;51.632;13.700;2023-03-01T05:54:16;19.13;;;7.53;;
73859;SDS011;62197;51.632;13.700;2023-03-01T05:56:42;15.95;;;7.82;;
73859;SDS011;62197;51.632;13.700;2023-03-01T05:59:07;17.58;;;7.03;;
73859;SDS011;62197;51.632;13.700;2023-03-01T06:01:33;21.90;;;7.55;;
73859;SDS011;62197;51.632;13.700;2023-03-01T06:04:00;14.10;;;6.75;;
73859;SDS011;62197;51.632;13.700;2023-03-01T06:06:26;23.20;;;8.40;;
73859;SDS011;62197;51.632;13.700;2023-03-01T06:08:52;17.50;;;7.13;;
73859;SDS011;62197;51.632;13.700;2023-03-01T06:11:18;18.10;;;7.03;;
73859;SDS011;62197;51.632;13.700;2023-03-01T06:13:44;19.88;;;7.70;;
73859;SDS011;62197;51.632;13.700;2023-03-01T06:16:10;20.17;;;8.30;;
73859;SDS011;62197;51.632;13.700;2023-03-01T06:18:36;23.45;;;8.27;;
73859;SDS011;62197;51.632;13.700;2023-03-01T06:21:02;20.02;;;9.50;;
73859;SDS011;62197;51.632;13.700;2023-03-01T06:23:28;20.88;;;9.13;;
73859;SDS011;62197;51.632;13.700;2023-03-01T06:25:53;23.77;;;10.15;;
73859;SDS011;62197;51.632;13.700;2023-03-01T06:28:19;17.67;;;9.00;;
73859;SDS011;62197;51.632;13.700;2023-03-01T06:30:44;16.90;;;7.88;;
73859;SDS011;62197;51.632;13.700;2023-03-01T06:33:10;18.85;;;8.60;;
73859;SDS011;62197;51.632;13.700;2023-03-01T06:35:36;18.67;;;8.65;;
73859;SDS011;62197;51.632;13.700;2023-03-01T06:38:02;21.27;;;8.90;;
73859;SDS011;62197;51.632;13.700;2023-03-01T06:40:28;15.43;;;7.85;;
73859;SDS011;62197;51.632;13.700;2023-03-01T06:42:55;17.83;;;8.18;;
73859;SDS011;62197;51.632;13.700;2023-03-01T06:45:21;10.90;;;7.40;;
73859;SDS011;62197;51.632;13.700;2023-03-01T06:47:47;21.80;;;9.70;;
73859;SDS011;62197;51.632;13.700;2023-03-01T06:50:13;15.02;;;7.43;;
73859;SDS011;62197;51.632;13.700;2023-03-01T06:52:39;23.08;;;9.27;;
73859;SDS011;62197;51.632;13.700;2023-03-01T06:55:05;23.00;;;8.27;;
73859;SDS011;62197;51.632;13.700;2023-03-01T06:59:56;19.67;;;8.57;;
73859;SDS011;62197;51.632;13.700;2023-03-01T07:02:21;18.95;;;8.98;;
73859;SDS011;62197;51.632;13.700;2023-03-01T07:04:48;22.33;;;11.70;;
73859;SDS011;62197;51.632;13.700;2023-03-01T07:07:14;26.25;;;10.85;;
73859;SDS011;62197;51.632;13.700;2023-03-01T07:09:40;19.58;;;10.10;;
73859;SDS011;62197;51.632;13.700;2023-03-01T07:12:05;22.98;;;10.55;;
73859;SDS011;62197;51.632;13.700;2023-03-01T07:14:31;21.70;;;10.52;;
73859;SDS011;62197;51.632;13.700;2023-03-01T07:16:56;27.92;;;11.80;;
73859;SDS011;62197;51.632;13.700;2023-03-01T07:19:22;22.17;;;11.13;;
73859;SDS011;62197;51.632;13.700;2023-03-01T07:21:47;25.67;;;10.77;;
73859;SDS011;62197;51.632;13.700;2023-03-01T07:24:12;23.52;;;10.55;;
73859;SDS011;62197;51.632;13.700;2023-03-01T07:26:38;25.58;;;11.50;;
73859;SDS011;62197;51.632;13.700;2023-03-01T07:29:04;29.33;;;12.50;;
73859;SDS011;62197;51.632;13.700;2023-03-01T07:31:31;33.58;;;14.50;;
73859;SDS011;62197;51.632;13.700;2023-03-01T07:33:57;28.35;;;13.05;;
73859;SDS011;62197;51.632;13.700;2023-03-01T07:36:22;27.00;;;12.52;;
73859;SDS011;62197;51.632;13.700;2023-03-01T07:38:48;26.55;;;11.65;;
73859;SDS011;62197;51.632;13.700;2023-03-01T07:41:14;23.30;;;12.57;;
73859;SDS011;62197;51.632;13.700;2023-03-01T07:43:39;28.52;;;13.55;;
73859;SDS011;62197;51.632;13.700;2023-03-01T07:46:05;32.53;;;15.60;;
73859;SDS011;62197;51.632;13.700;2023-03-01T07:48:31;33.55;;;15.88;;
73859;SDS011;62197;51.632;13.700;2023-03-01T07:53:23;25.88;;;15.15;;
73859;SDS011;62197;51.632;13.700;2023-03-01T07:55:48;25.05;;;14.00;;
73859;SDS011;62197;51.632;13.700;2023-03-01T07:58:14;26.10;;;15.05;;
73859;SDS011;62197;51.632;13.700;2023-03-01T08:00:39;25.88;;;12.02;;
73859;SDS011;62197;51.632;13.700;2023-03-01T08:03:04;25.52;;;12.23;;
73859;SDS011;62197;51.632;13.700;2023-03-01T08:05:30;24.10;;;10.00;;
73859;SDS011;62197;51.632;13.700;2023-03-01T08:07:55;20.90;;;10.50;;
73859;SDS011;62197;51.632;13.700;2023-03-01T08:10:20;25.08;;;11.23;;
73859;SDS011;62197;51.632;13.700;2023-03-01T08:12:46;29.33;;;11.75;;
73859;SDS011;62197;51.632;13.700;2023-03-01T08:15:11;31.23;;;12.68;;
73859;SDS011;62197;51.632;13.700;2023-03-01T08:17:37;26.95;;;12.70;;
73859;SDS011;62197;51.632;13.700;2023-03-01T08:20:02;20.27;;;10.82;;
73859;SDS011;62197;51.632;13.700;2023-03-01T08:22:31;20.17;;;10.85;;
73859;SDS011;62197;51.632;13.700;2023-03-01T08:24:56;20.95;;;11.20;;
73859;SDS011;62197;51.632;13.700;2023-03-01T08:27:21;25.45;;;11.75;;
73859;SDS011;62197;51.632;13.700;2023-03-01T08:29:47;24.55;;;11.50;;
73859;SDS011;62197;51.632;13.700;2023-03-01T08:32:12;23.42;;;11.65;;
73859;SDS011;62197;51.632;13.700;2023-03-01T08:34:37;24.88;;;10.52;;
73859;SDS011;62197;51.632;13.700;2023-03-01T08:37:03;19.77;;;10.02;;
73859;SDS011;62197;51.632;13.700;2023-03-01T08:39:28;23.85;;;10.40;;
73859;SDS011;62197;51.632;13.700;2023-03-01T08:41:53;22.58;;;11.38;;
73859;SDS011;62197;51.632;13.700;2023-03-01T08:44:19;21.15;;;11.32;;
73859;SDS011;62197;51.632;13.700;2023-03-01T08:46:46;22.05;;;11.15;;
73859;SDS011;62197;51.632;13.700;2023-03-01T08:49:15;24.17;;;13.07;;
73859;SDS011;62197;51.632;13.700;2023-03-01T08:51:42;20.65;;;10.75;;
73859;SDS011;62197;51.632;13.700;2023-03-01T08:54:11;24.63;;;11.13;;
73859;SDS011;62197;51.632;13.700;2023-03-01T08:56:42;23.25;;;11.32;;
73859;SDS011;62197;51.632;13.700;2023-03-01T08:59:09;24.02;;;10.52;;
73859;SDS011;62197;51.632;13.700;2023-03-01T09:01:39;33.28;;;16.48;;
73859;SDS011;62197;51.632;13.700;2023-03-01T09:04:05;32.83;;;15.40;;
73859;SDS011;62197;51.632;13.700;2023-03-01T09:06:31;23.58;;;12.68;;
73859;SDS011;62197;51.632;13.700;2023-03-01T09:08:58;24.73;;;10.93;;
73859;SDS011;62197;51.632;13.700;2023-03-01T09:11:23;25.38;;;12.80;;
73859;SDS011;62197;51.632;13.700;2023-03-01T09:13:48;24.10;;;11.65;;
73859;SDS011;62197;51.632;13.700;2023-03-01T09:16:15;23.73;;;10.15;;
73859;SDS011;62197;51.632;13.700;2023-03-01T09:18:42;22.23;;;10.73;;
73859;SDS011;62197;51.632;13.700;2023-03-01T09:21:12;22.95;;;9.65;;
73859;SDS011;62197;51.632;13.700;2023-03-01T09:23:39;21.20;;;9.63;;
73859;SDS011;62197;51.632;13.700;2023-03-01T09:26:07;22.60;;;8.20;;
73859;SDS011;62197;51.632;13.700;2023-03-01T09:28:34;17.25;;;9.20;;
73859;SDS011;62197;51.632;13.700;2023-03-01T09:31:00;22.73;;;8.43;;
73859;SDS011;62197;51.632;13.700;2023-03-01T09:33:27;20.17;;;9.30;;
73859;SDS011;62197;51.632;13.700;2023-03-01T09:35:57;21.30;;;9.65;;
73859;SDS011;62197;51.632;13.700;2023-03-01T09:38:28;23.70;;;10.00;;
73859;SDS011;62197;51.632;13.700;2023-03-01T09:40:53;21.55;;;9.80;;
73859;SDS011;62197;51.632;13.700;2023-03-01T09:43:35;19.58;;;8.38;;
73859;SDS011;62197;51.632;13.700;2023-03-01T09:46:11;17.48;;;7.53;;
73859;SDS011;62197;51.632;13.700;2023-03-01T09:48:43;19.63;;;8.68;;
73859;SDS011;62197;51.632;13.700;2023-03-01T09:51:18;19.23;;;7.80;;
73859;SDS011;62197;51.632;13.700;2023-03-01T09:53:50;17.92;;;7.85;;
73859;SDS011;62197;51.632;13.700;2023-03-01T09:56:24;19.15;;;9.05;;
73859;SDS011;62197;51.632;13.700;2023-03-01T09:59:09;14.27;;;7.45;;
73859;SDS011;62197;51.632;13.700;2023-03-01T10:04:58;15.90;;;8.10;;
73859;SDS011;62197;51.632;13.700;2023-03-01T10:07:48;15.50;;;7.30;;
73859;SDS011;62197;51.632;13.700;2023-03-01T10:12:58;15.98;;;7.07;;
73859;SDS011;62197;51.632;13.700;2023-03-01T10:15:33;15.93;;;7.80;;
73859;SDS011;62197;51.632;13.700;2023-03-01T10:18:04;21.65;;;8.60;;
73859;SDS011;62197;51.632;13.700;2023-03-01T10:20:56;17.15;;;8.40;;
73859;SDS011;62197;51.632;13.700;2023-03-01T10:23:25;18.58;;;8.38;;
73859;SDS011;62197;51.632;13.700;2023-03-01T10:25:56;19.38;;;9.40;;
73859;SDS011;62197;51.632;13.700;2023-03-01T10:28:57;17.83;;;8.27;;
73859;SDS011;62197;51.632;13.700;2023-03-01T10:31:30;17.05;;;9.45;;
73859;SDS011;62197;51.632;13.700;2023-03-01T10:34:10;18.48;;;9.43;;
73859;SDS011;62197;51.632;13.700;2023-03-01T10:36:41;18.05;;;8.02;;
73859;SDS011;62197;51.632;13.700;2023-03-01T10:39:16;17.02;;;7.70;;
73859;SDS011;62197;51.632;13.700;2023-03-01T10:41:54;19.23;;;7.47;;
73859;SDS011;62197;51.632;13.700;2023-03-01T10:44:35;16.52;;;8.00;;
73859;SDS011;62197;51.632;13.700;2023-03-01T10:47:19;20.25;;;8.45;;
73859;SDS011;62197;51.632;13.700;2023-03-01T10:50:08;16.20;;;8.05;;
73859;SDS011;62197;51.632;13.700;2023-03-01T10:52:44;12.40;;;5.97;;
73859;SDS011;62197;51.632;13.700;2023-03-01T10:55:33;15.07;;;6.75;;
73859;SDS011;62197;51.632;13.700;2023-03-01T10:58:17;18.92;;;8.52;;
73859;SDS011;62197;51.632;13.700;2023-03-01T11:00:54;16.02;;;6.85;;
73859;SDS011;62197;51.632;13.700;2023-03-01T11:03:26;14.25;;;6.43;;
73859;SDS011;62197;51.632;13.700;2023-03-01T11:08:33;11.35;;;4.85;;
73859;SDS011;62197;51.632;13.700;2023-03-01T11:11:12;10.40;;;4.88;;
73859;SDS011;62197;51.632;13.700;2023-03-01T11:14:04;12.25;;;5.85;;
73859;SDS011;62197;51.632;13.700;2023-03-01T11:16:38;12.05;;;5.60;;
73859;SDS011;62197;51.632;13.700;2023-03-01T11:21:34;11.98;;;5.72;;
73859;SDS011;62197;51.632;13.700;2023-03-01T11:24:23;11.27;;;5.65;;
73859;SDS011;62197;51.632;13.700;2023-03-01T11:26:54;11.27;;;5.28;;
73859;SDS011;62197;51.632;13.700;2023-03-01T11:29:27;12.95;;;4.93;;
73859;SDS011;62197;51.632;13.700;2023-03-01T11:32:00;11.23;;;5.45;;
73859;SDS011;62197;51.632;13.700;2023-03-01T11:37:31;13.68;;;6.93;;
73859;SDS011;62197;51.632;13.700;2023-03-01T11:40:05;10.90;;;5.40;;
73859;SDS011;62197;51.632;13.700;2023-03-01T11:42:42;9.65;;;4.70;;
73859;SDS011;62197;51.632;13.700;2023-03-01T11:45:15;8.35;;;4.88;;
73859;SDS011;62197;51.632;13.700;2023-03-01T11:50:40;10.32;;;5.28;;
73859;SDS011;62197;51.632;13.700;2023-03-01T11:53:20;9.30;;;5.13;;
73859;SDS011;62197;51.632;13.700;2023-03-01T11:55:53;12.63;;;5.35;;
73859;SDS011;62197;51.632;13.700;2023-03-01T11:59:03;11.20;;;5.28;;
73859;SDS011;62197;51.632;13.700;2023-03-01T12:02:19;8.75;;;4.55;;
73859;SDS011;62197;51.632;13.700;2023-03-01T12:04:54;12.48;;;5.25;;
73859;SDS011;62197;51.632;13.700;2023-03-01T12:10:28;8.48;;;4.28;;
73859;SDS011;62197;51.632;13.700;2023-03-01T12:18:07;8.35;;;4.18;;
73859;SDS011;62197;51.632;13.700;2023-03-01T12:23:53;9.07;;;4.25;;
73859;SDS011;62197;51.632;13.700;2023-03-01T12:26:38;10.43;;;4.65;;
73859;SDS011;62197;51.632;13.700;2023-03-01T12:29:25;9.13;;;4.85;;
73859;SDS011;62197;51.632;13.700;2023-03-01T12:40:40;12.32;;;5.95;;
73859;SDS011;62197;51.632;13.700;2023-03-01T12:50:48;14.07;;;6.50;;
73859;SDS011;62197;51.632;13.700;2023-03-01T12:53:27;10.73;;;5.97;;
73859;SDS011;62197;51.632;13.700;2023-03-01T12:55:56;10.52;;;4.97;;
73859;SDS011;62197;51.632;13.700;2023-03-01T12:58:28;12.27;;;5.65;;
73859;SDS011;62197;51.632;13.700;2023-03-01T13:11:55;12.15;;;6.20;;
73859;SDS011;62197;51.632;13.700;2023-03-01T13:16:47;11.93;;;5.78;;
73859;SDS011;62197;51.632;13.700;2023-03-01T13:19:15;11.90;;;6.60;;
73859;SDS011;62197;51.632;13.700;2023-03-01T13:21:43;11.60;;;5.18;;
73859;SDS011;62197;51.632;13.700;2023-03-01T13:24:29;8.98;;;4.68;;
73859;SDS011;62197;51.632;13.700;2023-03-01T13:32:29;14.32;;;5.57;;
73859;SDS011;62197;51.632;13.700;2023-03-01T13:37:26;9.45;;;4.50;;
73859;SDS011;62197;51.632;13.700;2023-03-01T13:39:57;7.30;;;4.53;;
73859;SDS011;62197;51.632;13.700;2023-03-01T13:42:40;8.18;;;4.60;;
73859;SDS011;62197;51.632;13.700;2023-03-01T13:45:24;8.45;;;4.70;;
73859;SDS011;62197;51.632;13.700;2023-03-01T13:48:18;8.98;;;3.92;;
73859;SDS011;62197;51.632;13.700;2023-03-01T13:50:51;8.23;;;4.05;;
73859;SDS011;62197;51.632;13.700;2023-03-01T13:53:20;7.82;;;3.88;;
73859;SDS011;62197;51.632;13.700;2023-03-01T13:55:50;8.10;;;4.18;;
73859;SDS011;62197;51.632;13.700;2023-03-01T13:58:24;7.57;;;4.00;;
73859;SDS011;62197;51.632;13.700;2023-03-01T14:00:55;6.97;;;4.10;;
73859;SDS011;62197;51.632;13.700;2023-03-01T14:03:26;6.95;;;4.13;;
73859;SDS011;62197;51.632;13.700;2023-03-01T14:06:03;7.15;;;4.25;;
73859;SDS011;62197;51.632;13.700;2023-03-01T14:08:34;6.80;;;3.55;;
73859;SDS011;62197;51.632;13.700;2023-03-01T14:14:02;6.03;;;3.28;;
73859;SDS011;62197;51.632;13.700;2023-03-01T14:19:19;7.88;;;3.88;;
73859;SDS011;62197;51.632;13.700;2023-03-01T14:21:49;7.88;;;3.70;;
73859;SDS011;62197;51.632;13.700;2023-03-01T14:24:27;6.78;;;4.25;;
73859;SDS011;62197;51.632;13.700;2023-03-01T14:26:52;8.25;;;4.00;;
73859;SDS011;62197;51.632;13.700;2023-03-01T14:29:34;7.13;;;4.10;;
73859;SDS011;62197;51.632;13.700;2023-03-01T14:34:47;8.13;;;4.20;;
73859;SDS011;62197;51.632;13.700;2023-03-01T14:37:19;8.18;;;4.10;;
73859;SDS011;62197;51.632;13.700;2023-03-01T14:39:49;7.63;;;3.58;;
73859;SDS011;62197;51.632;13.700;2023-03-01T14:42:15;9.52;;;3.80;;
73859;SDS011;62197;51.632;13.700;2023-03-01T14:44:42;8.27;;;3.83;;
73859;SDS011;62197;51.632;13.700;2023-03-01T14:47:11;7.28;;;3.70;;
73859;SDS011;62197;51.632;13.700;2023-03-01T14:49:39;9.40;;;4.28;;
73859;SDS011;62197;51.632;13.700;2023-03-01T14:52:07;8.85;;;4.40;;
73859;SDS011;62197;51.632;13.700;2023-03-01T14:54:43;9.68;;;4.18;;
73859;SDS011;62197;51.632;13.700;2023-03-01T14:57:15;9.27;;;4.85;;
73859;SDS011;62197;51.632;13.700;2023-03-01T14:59:41;8.00;;;4.07;;
73859;SDS011;62197;51.632;13.700;2023-03-01T15:02:08;8.38;;;4.85;;
73859;SDS011;62197;51.632;13.700;2023-03-01T15:04:41;7.53;;;4.03;;
73859;SDS011;62197;51.632;13.700;2023-03-01T15:07:09;10.82;;;4.85;;
73859;SDS011;62197;51.632;13.700;2023-03-01T15:09:39;8.85;;;5.30;;
73859;SDS011;62197;51.632;13.700;2023-03-01T15:14:52;7.18;;;4.30;;
73859;SDS011;62197;51.632;13.700;2023-03-01T15:17:37;9.73;;;4.78;;
73859;SDS011;62197;51.632;13.700;2023-03-01T15:20:17;8.55;;;4.50;;
73859;SDS011;62197;51.632;13.700;2023-03-01T15:22:46;9.18;;;4.20;;
73859;SDS011;62197;51.632;13.700;2023-03-01T15:25:20;8.93;;;4.03;;
73859;SDS011;62197;51.632;13.700;2023-03-01T15:27:48;7.10;;;4.13;;
73859;SDS011;62197;51.632;13.700;2023-03-01T15:30:32;9.20;;;4.25;;
73859;SDS011;62197;51.632;13.700;2023-03-01T15:35:51;8.20;;;4.10;;
73859;SDS011;62197;51.632;13.700;2023-03-01T15:38:25;7.22;;;3.67;;
73859;SDS011;62197;51.632;13.700;2023-03-01T15:41:02;7.90;;;4.20;;
73859;SDS011;62197;51.632;13.700;2023-03-01T15:43:45;9.80;;;4.85;;
73859;SDS011;62197;51.632;13.700;2023-03-01T15:48:47;7.53;;;3.55;;
73859;SDS011;62197;51.632;13.700;2023-03-01T15:51:17;7.45;;;3.85;;
73859;SDS011;62197;51.632;13.700;2023-03-01T15:53:48;8.43;;;3.70;;
73859;SDS011;62197;51.632;13.700;2023-03-01T15:56:16;9.50;;;4.03;;
73859;SDS011;62197;51.632;13.700;2023-03-01T15:58:41;9.50;;;3.65;;
73859;SDS011;62197;51.632;13.700;2023-03-01T16:01:13;6.22;;;3.20;;
73859;SDS011;62197;51.632;13.700;2023-03-01T16:03:40;8.52;;;4.07;;
73859;SDS011;62197;51.632;13.700;2023-03-01T16:06:06;7.55;;;3.95;;
73859;SDS011;62197;51.632;13.700;2023-03-01T16:08:33;9.45;;;4.25;;
73859;SDS011;62197;51.632;13.700;2023-03-01T16:13:23;8.03;;;3.93;;
73859;SDS011;62197;51.632;13.700;2023-03-01T16:15:50;8.45;;;4.00;;